sensor_id;sensor_type;location;lat;lon;timestamp;P1;durP1;ratioP1;P2;durP2;ratioP2
70663;SDS011;58237;57.996;56.290;2023-08-30T00:01:11;4.68;;;1.85;;
70663;SDS011;58237;57.996;56.290;2023-08-30T00:03:36;5.32;;;2.17;;
70663;SDS011;58237;57.996;56.290;2023-08-30T00:06:03;4.40;;;1.85;;
70663;SDS011;58237;57.996;56.290;2023-08-30T00:08:29;5.10;;;1.70;;
70663;SDS011;58237;57.996;56.290;2023-08-30T00:10:55;5.28;;;1.90;;
70663;SDS011;58237;57.996;56.290;2023-08-30T00:13:24;5.70;;;2.03;;
70663;SDS011;58237;57.996;56.290;2023-08-30T00:15:49;5.88;;;2.20;;
70663;SDS011;58237;57.996;56.290;2023-08-30T00:18:15;6.15;;;2.08;;
70663;SDS011;58237;57.996;56.290;2023-08-30T00:20:40;5.07;;;2.28;;
70663;SDS011;58237;57.996;56.290;2023-08-30T00:23:06;5.93;;;2.13;;
70663;SDS011;58237;57.996;56.290;2023-08-30T00:25:32;6.25;;;1.73;;
70663;SDS011;58237;57.996;56.290;2023-08-30T00:27:57;5.57;;;2.10;;
70663;SDS011;58237;57.996;56.290;2023-08-30T00:30:24;5.47;;;2.15;;
70663;SDS011;58237;57.996;56.290;2023-08-30T00:32:49;6.18;;;2.20;;
70663;SDS011;58237;57.996;56.290;2023-08-30T00:35:15;5.30;;;2.00;;
70663;SDS011;58237;57.996;56.290;2023-08-30T00:37:40;5.20;;;1.80;;
70663;SDS011;58237;57.996;56.290;2023-08-30T00:40:06;6.30;;;2.10;;
70663;SDS011;58237;57.996;56.290;2023-08-30T00:42:31;5.35;;;2.13;;
70663;SDS011;58237;57.996;56.290;2023-08-30T00:44:57;5.40;;;2.00;;
70663;SDS011;58237;57.996;56.290;2023-08-30T00:47:23;4.65;;;1.75;;
70663;SDS011;58237;57.996;56.290;2023-08-30T00:49:48;5.80;;;1.83;;
70663;SDS011;58237;57.996;56.290;2023-08-30T00:52:14;5.28;;;2.03;;
70663;SDS011;58237;57.996;56.290;2023-08-30T00:54:40;5.85;;;2.03;;
70663;SDS011;58237;57.996;56.290;2023-08-30T00:57:06;5.43;;;2.05;;
70663;SDS011;58237;57.996;56.290;2023-08-30T00:59:32;4.95;;;2.15;;
70663;SDS011;58237;57.996;56.290;2023-08-30T01:01:58;4.03;;;1.90;;
70663;SDS011;58237;57.996;56.290;2023-08-30T01:04:24;5.03;;;2.15;;
70663;SDS011;58237;57.996;56.290;2023-08-30T01:06:50;6.68;;;2.38;;
70663;SDS011;58237;57.996;56.290;2023-08-30T01:09:16;5.40;;;2.05;;
70663;SDS011;58237;57.996;56.290;2023-08-30T01:14:25;6.47;;;2.63;;
70663;SDS011;58237;57.996;56.290;2023-08-30T01:16:53;5.30;;;2.08;;
70663;SDS011;58237;57.996;56.290;2023-08-30T01:20:04;4.95;;;1.83;;
70663;SDS011;58237;57.996;56.290;2023-08-30T01:24:32;4.57;;;1.73;;
70663;SDS011;58237;57.996;56.290;2023-08-30T01:27:08;5.18;;;2.08;;
70663;SDS011;58237;57.996;56.290;2023-08-30T01:29:34;5.53;;;2.22;;
70663;SDS011;58237;57.996;56.290;2023-08-30T01:32:02;6.05;;;1.95;;
70663;SDS011;58237;57.996;56.290;2023-08-30T01:34:27;5.78;;;1.80;;
70663;SDS011;58237;57.996;56.290;2023-08-30T01:36:53;5.25;;;2.35;;
70663;SDS011;58237;57.996;56.290;2023-08-30T01:39:19;5.40;;;2.00;;
70663;SDS011;58237;57.996;56.290;2023-08-30T01:41:44;7.03;;;1.90;;
70663;SDS011;58237;57.996;56.290;2023-08-30T01:44:10;4.18;;;1.60;;
70663;SDS011;58237;57.996;56.290;2023-08-30T01:46:37;3.63;;;1.70;;
70663;SDS011;58237;57.996;56.290;2023-08-30T01:49:02;5.63;;;2.17;;
70663;SDS011;58237;57.996;56.290;2023-08-30T01:51:28;6.88;;;1.80;;
70663;SDS011;58237;57.996;56.290;2023-08-30T01:53:54;5.10;;;1.90;;
70663;SDS011;58237;57.996;56.290;2023-08-30T01:56:20;6.35;;;2.40;;
70663;SDS011;58237;57.996;56.290;2023-08-30T01:58:45;6.47;;;1.90;;
70663;SDS011;58237;57.996;56.290;2023-08-30T02:01:11;6.50;;;2.35;;
70663;SDS011;58237;57.996;56.290;2023-08-30T02:03:37;5.25;;;2.30;;
70663;SDS011;58237;57.996;56.290;2023-08-30T02:06:09;6.93;;;2.00;;
70663;SDS011;58237;57.996;56.290;2023-08-30T02:09:38;4.88;;;2.22;;
70663;SDS011;58237;57.996;56.290;2023-08-30T02:11:32;4.75;;;1.80;;
70663;SDS011;58237;57.996;56.290;2023-08-30T02:13:58;5.65;;;1.90;;
70663;SDS011;58237;57.996;56.290;2023-08-30T02:16:25;5.45;;;2.30;;
70663;SDS011;58237;57.996;56.290;2023-08-30T02:18:51;4.65;;;1.75;;
70663;SDS011;58237;57.996;56.290;2023-08-30T02:21:17;4.43;;;1.70;;
70663;SDS011;58237;57.996;56.290;2023-08-30T02:23:43;5.18;;;1.63;;
70663;SDS011;58237;57.996;56.290;2023-08-30T02:26:09;4.55;;;1.98;;
70663;SDS011;58237;57.996;56.290;2023-08-30T02:28:34;4.60;;;2.13;;
70663;SDS011;58237;57.996;56.290;2023-08-30T02:31:00;6.50;;;2.20;;
70663;SDS011;58237;57.996;56.290;2023-08-30T02:33:25;5.50;;;2.13;;
70663;SDS011;58237;57.996;56.290;2023-08-30T02:35:51;5.13;;;1.77;;
70663;SDS011;58237;57.996;56.290;2023-08-30T02:38:18;5.28;;;2.33;;
70663;SDS011;58237;57.996;56.290;2023-08-30T02:40:44;5.38;;;2.10;;
70663;SDS011;58237;57.996;56.290;2023-08-30T02:43:10;5.75;;;1.85;;
70663;SDS011;58237;57.996;56.290;2023-08-30T02:45:35;5.90;;;2.50;;
70663;SDS011;58237;57.996;56.290;2023-08-30T02:48:01;7.90;;;2.22;;
70663;SDS011;58237;57.996;56.290;2023-08-30T02:50:26;5.60;;;2.00;;
70663;SDS011;58237;57.996;56.290;2023-08-30T02:52:52;4.00;;;1.73;;
70663;SDS011;58237;57.996;56.290;2023-08-30T02:55:18;4.80;;;1.88;;
70663;SDS011;58237;57.996;56.290;2023-08-30T02:57:43;4.13;;;1.92;;
70663;SDS011;58237;57.996;56.290;2023-08-30T03:00:09;6.18;;;1.92;;
70663;SDS011;58237;57.996;56.290;2023-08-30T03:02:35;7.72;;;2.40;;
70663;SDS011;58237;57.996;56.290;2023-08-30T03:05:00;5.68;;;2.80;;
70663;SDS011;58237;57.996;56.290;2023-08-30T03:07:28;5.88;;;2.33;;
70663;SDS011;58237;57.996;56.290;2023-08-30T03:09:54;4.00;;;1.73;;
70663;SDS011;58237;57.996;56.290;2023-08-30T03:12:19;6.45;;;2.17;;
70663;SDS011;58237;57.996;56.290;2023-08-30T03:14:45;7.57;;;2.40;;
70663;SDS011;58237;57.996;56.290;2023-08-30T03:17:11;7.38;;;2.25;;
70663;SDS011;58237;57.996;56.290;2023-08-30T03:19:36;7.15;;;2.10;;
70663;SDS011;58237;57.996;56.290;2023-08-30T03:22:02;6.93;;;2.38;;
70663;SDS011;58237;57.996;56.290;2023-08-30T03:24:27;10.85;;;2.70;;
70663;SDS011;58237;57.996;56.290;2023-08-30T03:26:52;6.30;;;2.78;;
70663;SDS011;58237;57.996;56.290;2023-08-30T03:29:18;6.82;;;2.33;;
70663;SDS011;58237;57.996;56.290;2023-08-30T03:31:43;5.78;;;2.15;;
70663;SDS011;58237;57.996;56.290;2023-08-30T03:34:09;6.30;;;2.58;;
70663;SDS011;58237;57.996;56.290;2023-08-30T03:36:35;5.95;;;2.47;;
70663;SDS011;58237;57.996;56.290;2023-08-30T03:39:00;5.85;;;2.47;;
70663;SDS011;58237;57.996;56.290;2023-08-30T03:41:26;5.00;;;2.05;;
70663;SDS011;58237;57.996;56.290;2023-08-30T03:43:51;5.15;;;2.00;;
70663;SDS011;58237;57.996;56.290;2023-08-30T03:46:17;5.78;;;2.38;;
70663;SDS011;58237;57.996;56.290;2023-08-30T03:48:42;9.27;;;2.90;;
70663;SDS011;58237;57.996;56.290;2023-08-30T03:51:07;6.30;;;2.17;;
70663;SDS011;58237;57.996;56.290;2023-08-30T03:53:33;6.18;;;2.38;;
70663;SDS011;58237;57.996;56.290;2023-08-30T03:55:59;5.85;;;2.15;;
70663;SDS011;58237;57.996;56.290;2023-08-30T03:58:24;5.10;;;1.92;;
70663;SDS011;58237;57.996;56.290;2023-08-30T04:00:50;7.00;;;2.03;;
70663;SDS011;58237;57.996;56.290;2023-08-30T04:03:16;5.85;;;1.80;;
70663;SDS011;58237;57.996;56.290;2023-08-30T04:05:41;6.78;;;1.83;;
70663;SDS011;58237;57.996;56.290;2023-08-30T04:08:07;5.50;;;2.15;;
70663;SDS011;58237;57.996;56.290;2023-08-30T04:10:39;5.07;;;2.00;;
70663;SDS011;58237;57.996;56.290;2023-08-30T04:13:05;5.82;;;1.85;;
70663;SDS011;58237;57.996;56.290;2023-08-30T04:15:34;5.28;;;1.90;;
70663;SDS011;58237;57.996;56.290;2023-08-30T04:18:00;4.70;;;1.75;;
70663;SDS011;58237;57.996;56.290;2023-08-30T04:20:26;6.10;;;2.42;;
70663;SDS011;58237;57.996;56.290;2023-08-30T04:22:52;5.05;;;1.90;;
70663;SDS011;58237;57.996;56.290;2023-08-30T04:25:18;5.22;;;2.47;;
70663;SDS011;58237;57.996;56.290;2023-08-30T04:27:44;6.00;;;2.25;;
70663;SDS011;58237;57.996;56.290;2023-08-30T04:30:09;6.20;;;2.40;;
70663;SDS011;58237;57.996;56.290;2023-08-30T04:32:35;6.38;;;2.35;;
70663;SDS011;58237;57.996;56.290;2023-08-30T04:35:00;6.55;;;2.30;;
70663;SDS011;58237;57.996;56.290;2023-08-30T04:37:29;6.50;;;2.35;;
70663;SDS011;58237;57.996;56.290;2023-08-30T04:39:55;4.95;;;1.80;;
70663;SDS011;58237;57.996;56.290;2023-08-30T04:42:20;6.05;;;2.20;;
70663;SDS011;58237;57.996;56.290;2023-08-30T04:44:46;5.30;;;2.25;;
70663;SDS011;58237;57.996;56.290;2023-08-30T04:47:11;8.32;;;2.45;;
70663;SDS011;58237;57.996;56.290;2023-08-30T04:49:37;5.30;;;2.10;;
70663;SDS011;58237;57.996;56.290;2023-08-30T04:52:03;5.90;;;2.10;;
70663;SDS011;58237;57.996;56.290;2023-08-30T04:54:29;4.80;;;2.15;;
70663;SDS011;58237;57.996;56.290;2023-08-30T04:56:54;4.65;;;2.00;;
70663;SDS011;58237;57.996;56.290;2023-08-30T04:59:20;5.47;;;2.13;;
70663;SDS011;58237;57.996;56.290;2023-08-30T05:01:45;4.82;;;2.13;;
70663;SDS011;58237;57.996;56.290;2023-08-30T05:04:11;10.70;;;2.55;;
70663;SDS011;58237;57.996;56.290;2023-08-30T05:06:37;6.93;;;2.35;;
70663;SDS011;58237;57.996;56.290;2023-08-30T05:09:03;6.15;;;2.40;;
70663;SDS011;58237;57.996;56.290;2023-08-30T05:11:31;7.47;;;2.50;;
70663;SDS011;58237;57.996;56.290;2023-08-30T05:13:57;6.03;;;2.13;;
70663;SDS011;58237;57.996;56.290;2023-08-30T05:16:22;4.63;;;1.92;;
70663;SDS011;58237;57.996;56.290;2023-08-30T05:18:48;5.88;;;2.45;;
70663;SDS011;58237;57.996;56.290;2023-08-30T05:21:14;6.25;;;2.20;;
70663;SDS011;58237;57.996;56.290;2023-08-30T05:23:39;4.35;;;1.85;;
70663;SDS011;58237;57.996;56.290;2023-08-30T05:26:08;5.75;;;2.55;;
70663;SDS011;58237;57.996;56.290;2023-08-30T05:28:33;6.05;;;2.38;;
70663;SDS011;58237;57.996;56.290;2023-08-30T05:30:59;5.85;;;2.25;;
70663;SDS011;58237;57.996;56.290;2023-08-30T05:33:24;5.55;;;2.00;;
70663;SDS011;58237;57.996;56.290;2023-08-30T05:35:49;7.57;;;2.30;;
70663;SDS011;58237;57.996;56.290;2023-08-30T05:38:15;5.05;;;2.05;;
70663;SDS011;58237;57.996;56.290;2023-08-30T05:40:40;5.70;;;2.20;;
70663;SDS011;58237;57.996;56.290;2023-08-30T05:43:10;6.03;;;2.47;;
70663;SDS011;58237;57.996;56.290;2023-08-30T05:45:35;5.20;;;1.90;;
70663;SDS011;58237;57.996;56.290;2023-08-30T05:48:01;4.82;;;1.83;;
70663;SDS011;58237;57.996;56.290;2023-08-30T05:50:26;5.15;;;2.20;;
70663;SDS011;58237;57.996;56.290;2023-08-30T05:52:52;4.78;;;2.08;;
70663;SDS011;58237;57.996;56.290;2023-08-30T05:55:18;5.53;;;2.10;;
70663;SDS011;58237;57.996;56.290;2023-08-30T05:58:03;5.30;;;1.98;;
70663;SDS011;58237;57.996;56.290;2023-08-30T06:00:28;5.65;;;2.60;;
70663;SDS011;58237;57.996;56.290;2023-08-30T06:02:54;5.85;;;2.35;;
70663;SDS011;58237;57.996;56.290;2023-08-30T06:05:19;5.63;;;2.15;;
70663;SDS011;58237;57.996;56.290;2023-08-30T06:07:45;5.95;;;2.38;;
70663;SDS011;58237;57.996;56.290;2023-08-30T06:10:12;5.30;;;2.30;;
70663;SDS011;58237;57.996;56.290;2023-08-30T06:12:38;4.63;;;1.98;;
70663;SDS011;58237;57.996;56.290;2023-08-30T06:15:03;5.80;;;1.92;;
70663;SDS011;58237;57.996;56.290;2023-08-30T06:17:29;6.60;;;2.90;;
70663;SDS011;58237;57.996;56.290;2023-08-30T06:19:55;6.00;;;2.40;;
70663;SDS011;58237;57.996;56.290;2023-08-30T06:22:20;4.88;;;2.10;;
70663;SDS011;58237;57.996;56.290;2023-08-30T06:24:46;4.88;;;2.15;;
70663;SDS011;58237;57.996;56.290;2023-08-30T06:27:11;5.07;;;2.42;;
70663;SDS011;58237;57.996;56.290;2023-08-30T06:29:37;6.90;;;3.03;;
70663;SDS011;58237;57.996;56.290;2023-08-30T06:32:02;5.20;;;2.17;;
70663;SDS011;58237;57.996;56.290;2023-08-30T06:34:28;6.13;;;2.30;;
70663;SDS011;58237;57.996;56.290;2023-08-30T06:36:54;4.90;;;2.00;;
70663;SDS011;58237;57.996;56.290;2023-08-30T06:39:19;5.72;;;2.20;;
70663;SDS011;58237;57.996;56.290;2023-08-30T06:41:45;6.72;;;2.78;;
70663;SDS011;58237;57.996;56.290;2023-08-30T06:44:10;5.55;;;2.60;;
70663;SDS011;58237;57.996;56.290;2023-08-30T06:46:36;6.35;;;2.13;;
70663;SDS011;58237;57.996;56.290;2023-08-30T06:49:03;5.95;;;2.67;;
70663;SDS011;58237;57.996;56.290;2023-08-30T06:51:28;5.30;;;2.40;;
70663;SDS011;58237;57.996;56.290;2023-08-30T06:53:54;9.20;;;3.15;;
70663;SDS011;58237;57.996;56.290;2023-08-30T06:56:20;6.57;;;2.58;;
70663;SDS011;58237;57.996;56.290;2023-08-30T06:58:46;6.32;;;2.60;;
70663;SDS011;58237;57.996;56.290;2023-08-30T07:01:11;6.32;;;2.55;;
70663;SDS011;58237;57.996;56.290;2023-08-30T07:03:37;6.13;;;2.45;;
70663;SDS011;58237;57.996;56.290;2023-08-30T07:06:05;6.45;;;2.42;;
70663;SDS011;58237;57.996;56.290;2023-08-30T07:08:30;5.43;;;2.10;;
70663;SDS011;58237;57.996;56.290;2023-08-30T07:10:56;7.75;;;2.80;;
70663;SDS011;58237;57.996;56.290;2023-08-30T07:13:21;3.78;;;1.70;;
70663;SDS011;58237;57.996;56.290;2023-08-30T07:15:47;4.00;;;1.70;;
70663;SDS011;58237;57.996;56.290;2023-08-30T07:18:13;4.75;;;2.25;;
70663;SDS011;58237;57.996;56.290;2023-08-30T07:20:38;4.85;;;2.33;;
70663;SDS011;58237;57.996;56.290;2023-08-30T07:23:04;4.15;;;1.98;;
70663;SDS011;58237;57.996;56.290;2023-08-30T07:25:30;8.23;;;1.88;;
70663;SDS011;58237;57.996;56.290;2023-08-30T07:28:01;6.50;;;2.03;;
70663;SDS011;58237;57.996;56.290;2023-08-30T07:30:26;5.82;;;2.55;;
70663;SDS011;58237;57.996;56.290;2023-08-30T07:32:52;6.60;;;2.30;;
70663;SDS011;58237;57.996;56.290;2023-08-30T07:35:17;5.63;;;2.33;;
70663;SDS011;58237;57.996;56.290;2023-08-30T07:37:43;5.13;;;2.17;;
70663;SDS011;58237;57.996;56.290;2023-08-30T07:40:08;6.10;;;2.25;;
70663;SDS011;58237;57.996;56.290;2023-08-30T07:42:34;5.63;;;2.03;;
70663;SDS011;58237;57.996;56.290;2023-08-30T07:44:59;5.45;;;2.10;;
70663;SDS011;58237;57.996;56.290;2023-08-30T07:47:25;7.30;;;2.67;;
70663;SDS011;58237;57.996;56.290;2023-08-30T07:49:51;5.18;;;2.08;;
70663;SDS011;58237;57.996;56.290;2023-08-30T07:52:16;4.90;;;2.00;;
70663;SDS011;58237;57.996;56.290;2023-08-30T07:54:42;6.22;;;2.10;;
70663;SDS011;58237;57.996;56.290;2023-08-30T07:57:07;6.68;;;2.08;;
70663;SDS011;58237;57.996;56.290;2023-08-30T07:59:34;4.45;;;1.77;;
70663;SDS011;58237;57.996;56.290;2023-08-30T08:01:59;4.25;;;1.92;;
70663;SDS011;58237;57.996;56.290;2023-08-30T08:04:25;4.82;;;2.15;;
70663;SDS011;58237;57.996;56.290;2023-08-30T08:06:51;5.43;;;2.15;;
70663;SDS011;58237;57.996;56.290;2023-08-30T08:09:17;5.55;;;2.45;;
70663;SDS011;58237;57.996;56.290;2023-08-30T08:11:42;5.10;;;2.15;;
70663;SDS011;58237;57.996;56.290;2023-08-30T08:14:11;4.57;;;2.03;;
70663;SDS011;58237;57.996;56.290;2023-08-30T08:16:37;6.90;;;2.10;;
70663;SDS011;58237;57.996;56.290;2023-08-30T08:19:02;6.32;;;2.17;;
70663;SDS011;58237;57.996;56.290;2023-08-30T08:21:28;6.78;;;2.95;;
70663;SDS011;58237;57.996;56.290;2023-08-30T08:23:54;5.70;;;2.20;;
70663;SDS011;58237;57.996;56.290;2023-08-30T08:26:20;5.65;;;2.58;;
70663;SDS011;58237;57.996;56.290;2023-08-30T08:28:45;6.75;;;2.35;;
70663;SDS011;58237;57.996;56.290;2023-08-30T08:31:11;7.15;;;2.35;;
70663;SDS011;58237;57.996;56.290;2023-08-30T08:33:36;4.72;;;2.08;;
70663;SDS011;58237;57.996;56.290;2023-08-30T08:36:02;4.68;;;1.77;;
70663;SDS011;58237;57.996;56.290;2023-08-30T08:38:28;5.78;;;2.03;;
70663;SDS011;58237;57.996;56.290;2023-08-30T08:40:53;4.55;;;2.00;;
70663;SDS011;58237;57.996;56.290;2023-08-30T08:43:26;8.00;;;2.60;;
70663;SDS011;58237;57.996;56.290;2023-08-30T08:45:52;6.15;;;2.50;;
70663;SDS011;58237;57.996;56.290;2023-08-30T08:48:20;5.97;;;2.50;;
70663;SDS011;58237;57.996;56.290;2023-08-30T08:50:47;5.15;;;1.98;;
70663;SDS011;58237;57.996;56.290;2023-08-30T08:53:13;5.60;;;2.28;;
70663;SDS011;58237;57.996;56.290;2023-08-30T08:55:39;4.57;;;1.77;;
70663;SDS011;58237;57.996;56.290;2023-08-30T08:58:05;6.72;;;2.55;;
70663;SDS011;58237;57.996;56.290;2023-08-30T09:00:31;6.07;;;2.35;;
70663;SDS011;58237;57.996;56.290;2023-08-30T09:02:57;4.68;;;2.08;;
70663;SDS011;58237;57.996;56.290;2023-08-30T09:05:22;4.95;;;2.05;;
70663;SDS011;58237;57.996;56.290;2023-08-30T09:07:48;5.47;;;1.98;;
70663;SDS011;58237;57.996;56.290;2023-08-30T09:10:14;5.00;;;1.92;;
70663;SDS011;58237;57.996;56.290;2023-08-30T09:12:39;5.85;;;1.90;;
70663;SDS011;58237;57.996;56.290;2023-08-30T09:15:05;5.80;;;2.08;;
70663;SDS011;58237;57.996;56.290;2023-08-30T09:17:39;4.22;;;2.00;;
70663;SDS011;58237;57.996;56.290;2023-08-30T09:20:09;5.13;;;1.92;;
70663;SDS011;58237;57.996;56.290;2023-08-30T09:22:38;6.35;;;2.30;;
70663;SDS011;58237;57.996;56.290;2023-08-30T09:25:04;4.13;;;1.83;;
70663;SDS011;58237;57.996;56.290;2023-08-30T09:27:33;4.45;;;1.80;;
70663;SDS011;58237;57.996;56.290;2023-08-30T09:29:58;5.88;;;2.40;;
70663;SDS011;58237;57.996;56.290;2023-08-30T09:32:24;7.32;;;2.78;;
70663;SDS011;58237;57.996;56.290;2023-08-30T09:34:50;4.45;;;2.13;;
70663;SDS011;58237;57.996;56.290;2023-08-30T09:37:22;5.15;;;1.90;;
70663;SDS011;58237;57.996;56.290;2023-08-30T09:39:48;5.10;;;2.00;;
70663;SDS011;58237;57.996;56.290;2023-08-30T09:42:15;6.85;;;2.58;;
70663;SDS011;58237;57.996;56.290;2023-08-30T09:44:41;5.80;;;2.60;;
70663;SDS011;58237;57.996;56.290;2023-08-30T09:47:07;6.25;;;2.22;;
70663;SDS011;58237;57.996;56.290;2023-08-30T09:49:34;5.43;;;2.20;;
70663;SDS011;58237;57.996;56.290;2023-08-30T09:52:02;5.00;;;1.95;;
70663;SDS011;58237;57.996;56.290;2023-08-30T09:54:31;5.95;;;2.13;;
70663;SDS011;58237;57.996;56.290;2023-08-30T09:56:58;7.53;;;2.92;;
70663;SDS011;58237;57.996;56.290;2023-08-30T09:59:25;6.63;;;2.50;;
70663;SDS011;58237;57.996;56.290;2023-08-30T10:01:51;6.10;;;2.63;;
70663;SDS011;58237;57.996;56.290;2023-08-30T10:04:18;5.25;;;2.20;;
70663;SDS011;58237;57.996;56.290;2023-08-30T10:06:44;5.97;;;2.70;;
70663;SDS011;58237;57.996;56.290;2023-08-30T10:09:10;6.97;;;2.85;;
70663;SDS011;58237;57.996;56.290;2023-08-30T10:11:36;9.57;;;3.00;;
70663;SDS011;58237;57.996;56.290;2023-08-30T10:14:03;8.50;;;2.88;;
70663;SDS011;58237;57.996;56.290;2023-08-30T10:16:45;6.43;;;2.78;;
70663;SDS011;58237;57.996;56.290;2023-08-30T10:19:11;5.35;;;2.42;;
70663;SDS011;58237;57.996;56.290;2023-08-30T10:21:38;8.45;;;2.40;;
70663;SDS011;58237;57.996;56.290;2023-08-30T10:24:05;5.88;;;2.45;;
70663;SDS011;58237;57.996;56.290;2023-08-30T10:26:32;7.07;;;2.70;;
70663;SDS011;58237;57.996;56.290;2023-08-30T10:28:58;6.07;;;2.20;;
70663;SDS011;58237;57.996;56.290;2023-08-30T10:31:24;5.63;;;2.38;;
70663;SDS011;58237;57.996;56.290;2023-08-30T10:33:52;5.20;;;2.22;;
70663;SDS011;58237;57.996;56.290;2023-08-30T10:36:23;5.15;;;1.95;;
70663;SDS011;58237;57.996;56.290;2023-08-30T10:38:53;7.43;;;2.67;;
70663;SDS011;58237;57.996;56.290;2023-08-30T10:41:19;5.88;;;2.40;;
70663;SDS011;58237;57.996;56.290;2023-08-30T10:43:49;5.75;;;2.80;;
70663;SDS011;58237;57.996;56.290;2023-08-30T10:46:14;6.90;;;2.83;;
70663;SDS011;58237;57.996;56.290;2023-08-30T10:48:40;7.78;;;2.90;;
70663;SDS011;58237;57.996;56.290;2023-08-30T10:51:20;8.00;;;2.65;;
70663;SDS011;58237;57.996;56.290;2023-08-30T10:53:56;7.50;;;2.83;;
70663;SDS011;58237;57.996;56.290;2023-08-30T10:56:26;7.53;;;2.92;;
70663;SDS011;58237;57.996;56.290;2023-08-30T10:58:52;7.57;;;2.50;;
70663;SDS011;58237;57.996;56.290;2023-08-30T11:01:17;5.90;;;2.55;;
70663;SDS011;58237;57.996;56.290;2023-08-30T11:03:44;7.05;;;2.85;;
70663;SDS011;58237;57.996;56.290;2023-08-30T11:06:13;8.15;;;3.72;;
70663;SDS011;58237;57.996;56.290;2023-08-30T11:08:38;6.88;;;2.97;;
70663;SDS011;58237;57.996;56.290;2023-08-30T11:11:04;7.80;;;2.90;;
70663;SDS011;58237;57.996;56.290;2023-08-30T11:13:30;6.25;;;2.70;;
70663;SDS011;58237;57.996;56.290;2023-08-30T11:16:04;5.90;;;2.80;;
70663;SDS011;58237;57.996;56.290;2023-08-30T11:18:30;6.93;;;3.03;;
70663;SDS011;58237;57.996;56.290;2023-08-30T11:21:02;7.63;;;2.85;;
70663;SDS011;58237;57.996;56.290;2023-08-30T11:23:27;5.32;;;2.50;;
70663;SDS011;58237;57.996;56.290;2023-08-30T11:25:53;6.22;;;2.92;;
70663;SDS011;58237;57.996;56.290;2023-08-30T11:28:24;5.65;;;2.60;;
70663;SDS011;58237;57.996;56.290;2023-08-30T11:30:54;8.07;;;3.45;;
70663;SDS011;58237;57.996;56.290;2023-08-30T11:33:20;6.25;;;2.67;;
70663;SDS011;58237;57.996;56.290;2023-08-30T11:35:45;9.25;;;2.45;;
70663;SDS011;58237;57.996;56.290;2023-08-30T11:38:13;7.22;;;2.80;;
70663;SDS011;58237;57.996;56.290;2023-08-30T11:40:39;5.72;;;2.60;;
70663;SDS011;58237;57.996;56.290;2023-08-30T11:43:04;7.25;;;2.95;;
70663;SDS011;58237;57.996;56.290;2023-08-30T11:45:31;4.68;;;2.45;;
70663;SDS011;58237;57.996;56.290;2023-08-30T11:47:58;7.28;;;3.17;;
70663;SDS011;58237;57.996;56.290;2023-08-30T11:50:25;7.28;;;3.10;;
70663;SDS011;58237;57.996;56.290;2023-08-30T11:52:51;6.30;;;2.92;;
70663;SDS011;58237;57.996;56.290;2023-08-30T11:55:17;6.25;;;2.70;;
70663;SDS011;58237;57.996;56.290;2023-08-30T11:57:44;5.97;;;2.67;;
70663;SDS011;58237;57.996;56.290;2023-08-30T12:00:10;5.65;;;2.70;;
70663;SDS011;58237;57.996;56.290;2023-08-30T12:02:36;6.78;;;2.72;;
70663;SDS011;58237;57.996;56.290;2023-08-30T12:05:02;6.32;;;3.10;;
70663;SDS011;58237;57.996;56.290;2023-08-30T12:07:29;6.32;;;2.58;;
70663;SDS011;58237;57.996;56.290;2023-08-30T12:10:08;5.22;;;2.28;;
70663;SDS011;58237;57.996;56.290;2023-08-30T12:12:33;6.20;;;2.80;;
70663;SDS011;58237;57.996;56.290;2023-08-30T12:15:04;6.88;;;3.47;;
70663;SDS011;58237;57.996;56.290;2023-08-30T12:17:32;6.65;;;3.58;;
70663;SDS011;58237;57.996;56.290;2023-08-30T12:19:59;6.95;;;4.03;;
70663;SDS011;58237;57.996;56.290;2023-08-30T12:22:40;10.07;;;4.18;;
70663;SDS011;58237;57.996;56.290;2023-08-30T12:25:19;8.55;;;4.35;;
70663;SDS011;58237;57.996;56.290;2023-08-30T12:27:45;8.32;;;4.00;;
70663;SDS011;58237;57.996;56.290;2023-08-30T12:30:12;7.03;;;3.55;;
70663;SDS011;58237;57.996;56.290;2023-08-30T12:32:38;7.95;;;3.53;;
70663;SDS011;58237;57.996;56.290;2023-08-30T12:35:03;7.70;;;3.60;;
70663;SDS011;58237;57.996;56.290;2023-08-30T12:37:29;7.30;;;3.45;;
70663;SDS011;58237;57.996;56.290;2023-08-30T12:39:55;6.97;;;3.50;;
70663;SDS011;58237;57.996;56.290;2023-08-30T12:42:20;7.90;;;3.40;;
70663;SDS011;58237;57.996;56.290;2023-08-30T12:44:46;6.70;;;3.03;;
70663;SDS011;58237;57.996;56.290;2023-08-30T12:47:11;5.80;;;2.53;;
70663;SDS011;58237;57.996;56.290;2023-08-30T12:49:39;6.07;;;2.50;;
70663;SDS011;58237;57.996;56.290;2023-08-30T12:52:05;6.60;;;2.80;;
70663;SDS011;58237;57.996;56.290;2023-08-30T12:54:30;5.68;;;2.25;;
70663;SDS011;58237;57.996;56.290;2023-08-30T12:56:56;6.55;;;2.55;;
70663;SDS011;58237;57.996;56.290;2023-08-30T12:59:21;7.00;;;2.88;;
70663;SDS011;58237;57.996;56.290;2023-08-30T13:01:47;8.43;;;3.45;;
70663;SDS011;58237;57.996;56.290;2023-08-30T13:04:12;7.38;;;3.25;;
70663;SDS011;58237;57.996;56.290;2023-08-30T13:06:38;8.93;;;3.05;;
70663;SDS011;58237;57.996;56.290;2023-08-30T13:09:03;7.00;;;3.00;;
70663;SDS011;58237;57.996;56.290;2023-08-30T13:11:29;6.53;;;3.28;;
70663;SDS011;58237;57.996;56.290;2023-08-30T13:13:57;7.03;;;3.40;;
70663;SDS011;58237;57.996;56.290;2023-08-30T13:16:23;7.03;;;3.08;;
70663;SDS011;58237;57.996;56.290;2023-08-30T13:18:49;8.38;;;3.53;;
70663;SDS011;58237;57.996;56.290;2023-08-30T13:21:14;6.78;;;2.95;;
70663;SDS011;58237;57.996;56.290;2023-08-30T13:23:40;6.70;;;3.22;;
70663;SDS011;58237;57.996;56.290;2023-08-30T13:26:05;7.78;;;3.20;;
70663;SDS011;58237;57.996;56.290;2023-08-30T13:28:31;7.03;;;2.83;;
70663;SDS011;58237;57.996;56.290;2023-08-30T13:30:56;6.57;;;3.17;;
70663;SDS011;58237;57.996;56.290;2023-08-30T13:33:22;7.53;;;3.17;;
70663;SDS011;58237;57.996;56.290;2023-08-30T13:35:50;7.50;;;3.08;;
70663;SDS011;58237;57.996;56.290;2023-08-30T13:38:17;6.50;;;2.92;;
70663;SDS011;58237;57.996;56.290;2023-08-30T13:40:42;6.72;;;2.65;;
70663;SDS011;58237;57.996;56.290;2023-08-30T13:43:08;6.90;;;2.92;;
70663;SDS011;58237;57.996;56.290;2023-08-30T13:45:33;6.88;;;2.70;;
70663;SDS011;58237;57.996;56.290;2023-08-30T13:47:59;6.57;;;3.05;;
70663;SDS011;58237;57.996;56.290;2023-08-30T13:50:25;6.55;;;2.60;;
70663;SDS011;58237;57.996;56.290;2023-08-30T13:52:55;6.95;;;2.80;;
70663;SDS011;58237;57.996;56.290;2023-08-30T13:55:21;6.05;;;2.60;;
70663;SDS011;58237;57.996;56.290;2023-08-30T13:57:46;7.75;;;3.78;;
70663;SDS011;58237;57.996;56.290;2023-08-30T14:00:12;7.30;;;2.72;;
70663;SDS011;58237;57.996;56.290;2023-08-30T14:02:38;6.10;;;2.95;;
70663;SDS011;58237;57.996;56.290;2023-08-30T14:05:03;5.93;;;2.83;;
70663;SDS011;58237;57.996;56.290;2023-08-30T14:07:30;6.40;;;2.67;;
70663;SDS011;58237;57.996;56.290;2023-08-30T14:09:55;8.23;;;3.13;;
70663;SDS011;58237;57.996;56.290;2023-08-30T14:12:21;8.77;;;3.42;;
70663;SDS011;58237;57.996;56.290;2023-08-30T14:14:46;5.53;;;2.50;;
70663;SDS011;58237;57.996;56.290;2023-08-30T14:17:12;6.55;;;3.10;;
70663;SDS011;58237;57.996;56.290;2023-08-30T14:19:37;6.53;;;2.80;;
70663;SDS011;58237;57.996;56.290;2023-08-30T14:22:03;6.35;;;2.72;;
70663;SDS011;58237;57.996;56.290;2023-08-30T14:24:31;6.47;;;2.90;;
70663;SDS011;58237;57.996;56.290;2023-08-30T14:26:57;5.88;;;2.85;;
70663;SDS011;58237;57.996;56.290;2023-08-30T14:29:23;8.38;;;3.45;;
70663;SDS011;58237;57.996;56.290;2023-08-30T14:31:48;7.68;;;3.03;;
70663;SDS011;58237;57.996;56.290;2023-08-30T14:34:14;6.47;;;2.50;;